Time,TemperatureF,DewpointF,PressureIn,WindDirection,WindDirectionDegrees,WindSpeedMPH,WindSpeedGustMPH,Humidity,HourlyPrecipIn,Conditions,Clouds,dailyrainin,SoftwareType,DateUTC
2013-08-03 01:11:00,67.0,48.0,-100.00,SE,135,12.0,15.0,50,-99.99,,,-99.99,,2013-08-03 08:11:00,
2013-08-03 02:02:00,66.0,49.0,-100.00,SE,145,12.0,14.0,54,-99.99,,,-99.99,,2013-08-03 09:02:00,
2013-08-03 03:12:00,65.0,50.0,-100.00,South,170,5.0,12.0,58,-99.99,,,-99.99,,2013-08-03 10:12:00,
2013-08-03 05:12:00,62.0,51.0,-100.00,South,170,3.0,6.0,67,-99.99,,,-99.99,,2013-08-03 12:12:00,
2013-08-03 06:02:00,62.0,51.0,-100.00,East,85,2.0,3.0,67,-99.99,,,-99.99,,2013-08-03 13:02:00,
2013-08-03 06:10:00,63.0,51.0,-100.00,ESE,115,1.0,3.0,64,-99.99,,,-99.99,,2013-08-03 13:10:00,
2013-08-03 08:10:00,66.0,52.0,-100.00,NE,40,2.0,6.0,60,-99.99,,,-99.99,,2013-08-03 15:10:00,
2013-08-03 10:10:00,72.0,51.0,-100.00,NE,35,5.0,9.0,47,-99.99,,,-99.99,,2013-08-03 17:10:00,
2013-08-03 11:20:00,75.0,54.0,-100.00,NNE,20,3.0,8.0,47,-99.99,,,-99.99,,2013-08-03 18:20:00,
2013-08-03 12:10:00,80.0,55.0,-100.00,NNE,30,3.0,6.0,42,-99.99,,,-99.99,,2013-08-03 19:10:00,
2013-08-03 12:12:00,75.0,54.0,-100.00,NNE,20,3.0,8.0,47,-99.99,,,-99.99,,2013-08-03 19:12:00,
2013-08-03 14:10:00,79.0,57.0,-100.00,WNW,285,6.0,13.0,46,-99.99,,,-99.99,,2013-08-03 21:10:00,
2013-08-03 14:12:00,78.0,59.0,-100.00,SSE,165,7.0,13.0,52,-99.99,,,-99.99,,2013-08-03 21:12:00,
2013-08-03 16:12:00,82.0,57.0,-100.00,SW,230,8.0,13.0,42,-99.99,,,-99.99,,2013-08-03 23:12:00,
2013-08-03 17:02:00,81.0,55.0,-100.00,WNW,290,3.0,6.0,40,-99.99,,,-99.99,,2013-08-04 00:02:00,
2013-08-03 18:02:00,81.0,55.0,-100.00,WSW,250,2.0,7.0,40,-99.99,,,-99.99,,2013-08-04 01:02:00,
2013-08-03 18:12:00,81.0,55.0,-100.00,WSW,250,2.0,7.0,40,-99.99,,,-99.99,,2013-08-04 01:12:00,
2013-08-03 20:02:00,79.0,55.0,-100.00,SW,215,6.0,9.0,43,-99.99,,,-99.99,,2013-08-04 03:02:00,
2013-08-03 20:11:00,79.0,55.0,-100.00,SW,215,6.0,9.0,43,-99.99,,,-99.99,,2013-08-04 03:11:00,
2013-08-03 21:02:00,76.0,56.0,-100.00,SSW,200,5.0,9.0,49,-99.99,,,-99.99,,2013-08-04 04:02:00,
2013-08-03 22:02:00,75.0,55.0,-100.00,NNE,20,1.0,1.0,49,-99.99,,,-99.99,,2013-08-04 05:02:00,
2013-08-03 22:12:00,75.0,55.0,-100.00,NNE,20,1.0,1.0,49,-99.99,,,-99.99,,2013-08-04 05:12:00,
2013-08-03 23:01:00,70.0,57.0,-100.00,SSW,195,1.0,1.0,63,-99.99,,,-99.99,,2013-08-04 06:01:00,
2013-08-03 23:10:00,69.0,57.0,-100.00,SE,145,0.0,2.0,65,-99.99,,,-99.99,,2013-08-04 06:10:00,